Pilot Station, Alaska
Current Conditions -  °F | °C
As of 10:36 AM on Thursday 23 Oct 2014 (Local Time) from PASM Reporting Station
Overcast Overcast  
Wind Chill: -8°   Ceiling: 1300
Heat Index: -3°   Visibility: 1.5mi
Dew Point: -5°   Wind: 10mph
Humidity: 86%   Direction: 150°SSE
Pressure: 29.81"   Gusts: 17mph
Location:  61.94°N, 162.88°W
Report Text: PASM 231836Z AUTO 15009G15KT 1 1/2SM OVC013 M03/M05 A2981 RMK AO1
Loading
Personal Weather Stations






























Interactive Weather Map
Tropical Storm Tracking
New forecast layout! Learn more

10-Day Weather Forecast

Advertisements
Track Severe Weather on mobile